createdAt,value
2023-03-23T15:59:03.365Z,2.80
2023-03-23T16:03:10.987Z,2.10
2023-03-23T16:07:16.507Z,2.40
2023-03-23T16:11:23.829Z,2.20
2023-03-23T16:15:29.355Z,2.30
2023-03-23T16:19:34.807Z,2.30
2023-03-23T16:23:41.185Z,2.50
2023-03-23T16:27:51.767Z,2.40
2023-03-23T16:31:57.866Z,1.90
2023-03-23T16:36:03.769Z,2.20
2023-03-23T16:40:12.782Z,2.00
2023-03-23T16:44:18.278Z,2.20
2023-03-23T16:48:24.349Z,2.20
2023-03-23T16:52:29.908Z,2.00
2023-03-23T16:56:35.500Z,1.90
2023-03-23T17:00:41.563Z,2.20
2023-03-23T17:04:47.438Z,2.30
2023-03-23T17:08:55.430Z,2.20
2023-03-23T17:13:01.663Z,2.40
2023-03-23T17:17:09.108Z,2.10
2023-03-23T17:21:14.421Z,2.10
2023-03-23T17:25:20.079Z,2.50
2023-03-23T17:29:26.049Z,2.50
2023-03-23T17:33:31.409Z,2.70
2023-03-23T17:37:38.056Z,2.80
2023-03-23T17:41:43.432Z,3.60
2023-03-23T17:45:49.018Z,3.90
2023-03-23T17:49:54.847Z,4.40
2023-03-23T17:54:00.301Z,4.00
2023-03-23T17:58:05.754Z,2.70
2023-03-23T18:02:14.077Z,3.60
2023-03-23T18:06:19.753Z,3.90
2023-03-23T18:10:25.212Z,3.90
2023-03-23T18:14:30.536Z,3.40
2023-03-23T18:18:36.192Z,2.80
2023-03-23T18:22:41.651Z,3.00
2023-03-23T18:26:47.001Z,3.30
2023-03-23T18:30:52.490Z,3.40
2023-03-23T18:34:58.160Z,4.30
2023-03-23T18:39:03.989Z,4.20
2023-03-23T18:43:10.064Z,4.10
2023-03-23T18:47:15.823Z,4.50
2023-03-23T18:51:21.358Z,3.90
2023-03-23T18:55:26.741Z,4.40
2023-03-23T18:59:34.112Z,4.20
2023-03-23T19:03:40.488Z,4.50
2023-03-23T19:07:45.925Z,4.20
2023-03-23T19:11:51.483Z,4.50
2023-03-23T19:15:56.969Z,3.80
2023-03-23T19:20:02.987Z,4.40
2023-03-23T19:24:09.419Z,3.90
2023-03-23T19:32:23.475Z,3.90
2023-03-23T19:36:29.001Z,3.90
2023-03-23T19:40:49.946Z,4.10
2023-03-23T19:44:55.504Z,4.60
2023-03-23T19:49:00.954Z,4.40
2023-03-23T19:53:06.361Z,4.40
2023-03-23T19:57:12.224Z,3.70
2023-03-23T20:01:18.324Z,3.70
2023-03-23T20:05:24.038Z,3.40
2023-03-23T20:09:30.679Z,3.00
2023-03-23T20:13:37.152Z,3.10
2023-03-23T20:17:42.936Z,2.80
2023-03-23T20:21:49.718Z,2.50
2023-03-23T20:25:57.668Z,2.50
2023-03-23T20:30:04.343Z,2.70
2023-03-23T20:34:10.980Z,2.30
2023-03-23T20:38:18.689Z,2.10
2023-03-23T20:42:24.249Z,2.00
2023-03-23T20:46:29.812Z,2.00
2023-03-23T20:50:35.101Z,2.30
2023-03-23T20:54:41.011Z,2.10
2023-03-23T20:58:47.501Z,2.20
2023-03-23T21:02:54.382Z,2.40
2023-03-23T21:07:01.047Z,2.90
2023-03-23T21:11:07.834Z,2.50
2023-03-23T21:15:13.963Z,2.00
2023-03-23T21:19:20.386Z,2.10
2023-03-23T21:23:26.705Z,1.90
2023-03-23T21:27:32.412Z,2.00
2023-03-23T21:31:38.193Z,2.20
2023-03-23T21:35:43.667Z,2.20
2023-03-23T21:39:49.206Z,2.10
2023-03-23T21:43:54.831Z,2.40
2023-03-23T21:48:00.313Z,2.20
2023-03-23T21:52:05.904Z,2.80
2023-03-23T21:56:12.667Z,2.50
2023-03-23T22:00:19.020Z,2.30
2023-03-23T22:04:24.866Z,2.00
2023-03-23T22:08:30.846Z,2.50
2023-03-23T22:12:36.715Z,2.70
2023-03-23T22:16:42.154Z,2.50
2023-03-23T22:20:47.916Z,2.50
2023-03-23T22:24:53.463Z,2.90
2023-03-23T22:28:59.477Z,2.90
2023-03-23T22:33:05.011Z,2.70
2023-03-23T22:37:10.337Z,3.30
2023-03-23T22:41:17.645Z,2.70
2023-03-23T22:45:24.350Z,3.00
2023-03-23T22:49:29.785Z,2.80
2023-03-23T22:53:35.230Z,3.40
2023-03-23T22:57:40.683Z,3.40
2023-03-23T23:01:46.239Z,3.40
2023-03-23T23:05:52.622Z,3.70
2023-03-23T23:09:58.279Z,3.60
2023-03-23T23:14:03.627Z,3.60
2023-03-23T23:18:08.937Z,3.80
2023-03-23T23:22:19.186Z,3.90
2023-03-23T23:26:25.104Z,3.80
2023-03-23T23:30:31.624Z,3.00
2023-03-23T23:34:37.333Z,3.20
2023-03-23T23:38:42.614Z,3.60
2023-03-23T23:42:49.078Z,3.00
2023-03-23T23:46:57.587Z,3.10
2023-03-23T23:51:03.048Z,2.60
2023-03-23T23:55:10.112Z,2.90
2023-03-23T23:59:16.519Z,2.80
